createdAt,value
2019-02-23T00:00:44.419Z,19.52
2019-02-23T00:03:14.787Z,17.70
2019-02-23T00:05:43.556Z,18.10
2019-02-23T00:08:12.136Z,16.82
2019-02-23T00:10:41.078Z,18.93
2019-02-23T00:13:09.927Z,18.52
2019-02-23T00:15:38.522Z,21.27
2019-02-23T00:18:07.224Z,27.97
2019-02-23T00:20:36.135Z,38.27
2019-02-23T00:23:04.913Z,35.93
2019-02-23T00:25:33.835Z,35.80
2019-02-23T00:28:02.456Z,27.52
2019-02-23T00:30:31.374Z,25.32
2019-02-23T00:33:00.044Z,34.67
2019-02-23T00:35:28.657Z,32.50
2019-02-23T00:37:57.645Z,29.10
2019-02-23T00:40:26.593Z,28.17
2019-02-23T00:42:55.537Z,19.40
2019-02-23T00:45:24.575Z,17.67
2019-02-23T00:47:53.416Z,17.07
2019-02-23T00:50:22.245Z,18.42
2019-02-23T00:52:50.960Z,17.12
2019-02-23T00:55:19.771Z,17.05
2019-02-23T00:57:48.653Z,17.52
2019-02-23T01:00:17.746Z,18.12
2019-02-23T01:02:46.647Z,15.75
2019-02-23T01:05:15.374Z,15.53
2019-02-23T01:07:44.048Z,15.68
2019-02-23T01:10:12.888Z,15.23
2019-02-23T01:12:41.784Z,13.60
2019-02-23T01:15:10.924Z,14.35
2019-02-23T01:17:39.690Z,15.20
2019-02-23T01:20:09.576Z,14.55
2019-02-23T01:22:38.397Z,18.92
2019-02-23T01:25:07.483Z,22.80
2019-02-23T01:27:36.412Z,14.83
2019-02-23T01:30:06.269Z,13.48
2019-02-23T01:32:34.949Z,12.45
2019-02-23T01:35:04.091Z,12.30
2019-02-23T01:37:32.759Z,14.30
2019-02-23T01:40:02.367Z,16.27
2019-02-23T01:42:31.308Z,15.58
2019-02-23T01:45:00.386Z,17.07
2019-02-23T01:47:29.028Z,18.30
2019-02-23T01:49:59.247Z,18.63
2019-02-23T01:52:29.275Z,18.52
2019-02-23T01:54:57.919Z,18.42
2019-02-23T01:57:26.827Z,19.85
2019-02-23T01:59:55.393Z,18.53
2019-02-23T02:02:24.034Z,18.23
2019-02-23T02:04:52.824Z,18.42
2019-02-23T02:07:21.599Z,21.85
2019-02-23T02:09:50.413Z,25.35
2019-02-23T02:12:19.726Z,16.73
2019-02-23T02:14:48.745Z,16.82
2019-02-23T02:17:17.923Z,15.58
2019-02-23T02:19:46.618Z,16.93
2019-02-23T02:22:15.250Z,19.17
2019-02-23T02:24:44.226Z,20.40
2019-02-23T02:27:13.006Z,20.00
2019-02-23T02:29:41.980Z,20.53
2019-02-23T02:32:10.886Z,17.27
2019-02-23T02:34:39.916Z,16.80
2019-02-23T02:37:08.908Z,17.73
2019-02-23T02:39:37.926Z,17.42
2019-02-23T02:42:07.119Z,13.48
2019-02-23T02:44:36.087Z,13.57
2019-02-23T02:47:04.908Z,12.93
2019-02-23T02:49:33.804Z,15.77
2019-02-23T02:52:02.777Z,15.50
2019-02-23T02:54:31.795Z,14.80
2019-02-23T02:57:00.897Z,17.83
2019-02-23T02:59:29.547Z,16.67
2019-02-23T03:01:59.006Z,18.33
2019-02-23T03:04:27.925Z,17.33
2019-02-23T03:06:56.883Z,16.17
2019-02-23T03:09:25.511Z,18.00
2019-02-23T03:11:54.227Z,17.27
2019-02-23T03:14:25.845Z,18.15
2019-02-23T03:16:54.767Z,18.10
2019-02-23T03:19:23.810Z,21.40
2019-02-23T03:21:52.558Z,21.80
2019-02-23T03:24:21.425Z,20.53
2019-02-23T03:26:49.997Z,19.93
2019-02-23T03:29:19.049Z,19.37
2019-02-23T03:31:47.901Z,19.00
2019-02-23T03:34:16.475Z,19.20
2019-02-23T03:36:45.332Z,19.90
2019-02-23T03:39:13.934Z,17.73
2019-02-23T03:41:43.861Z,16.82
2019-02-23T03:44:12.753Z,18.17
2019-02-23T03:46:41.293Z,17.50
2019-02-23T03:49:10.324Z,18.07
2019-02-23T03:51:38.995Z,17.37
2019-02-23T03:54:08.076Z,21.40
2019-02-23T03:56:37.238Z,22.30
2019-02-23T03:59:06.066Z,28.95
2019-02-23T04:01:34.991Z,21.30
2019-02-23T04:04:03.754Z,23.65
2019-02-23T04:06:32.500Z,22.77
2019-02-23T04:09:02.833Z,29.40
2019-02-23T04:14:01.395Z,21.70
2019-02-23T04:16:30.333Z,22.15
2019-02-23T04:18:58.936Z,22.40
2019-02-23T04:21:28.120Z,21.85
2019-02-23T04:23:57.143Z,23.50
2019-02-23T04:26:26.140Z,24.87
2019-02-23T04:28:54.951Z,29.32
2019-02-23T04:31:23.978Z,24.45
2019-02-23T04:33:53.148Z,22.52
2019-02-23T04:36:21.810Z,22.17
2019-02-23T04:38:50.635Z,23.42
2019-02-23T04:41:19.441Z,24.45
2019-02-23T04:43:48.236Z,22.77
2019-02-23T04:46:16.954Z,23.95
2019-02-23T04:48:45.985Z,25.00
2019-02-23T04:51:14.969Z,24.95
2019-02-23T04:53:43.855Z,25.37
2019-02-23T04:56:12.615Z,24.23
2019-02-23T04:58:41.226Z,24.12
2019-02-23T05:01:10.100Z,25.10
2019-02-23T05:03:38.834Z,26.85
2019-02-23T05:06:07.605Z,31.77
2019-02-23T05:08:37.197Z,27.37
2019-02-23T05:11:05.923Z,26.40
2019-02-23T05:13:34.936Z,27.75
2019-02-23T05:16:05.069Z,27.70
2019-02-23T05:18:33.697Z,28.25
2019-02-23T05:21:02.574Z,27.75
2019-02-23T05:23:32.497Z,26.65
2019-02-23T05:26:01.125Z,26.00
2019-02-23T05:28:30.037Z,24.82
2019-02-23T05:30:58.645Z,23.18
2019-02-23T05:33:27.608Z,23.45
2019-02-23T05:35:56.483Z,22.77
2019-02-23T05:38:25.123Z,22.55
2019-02-23T05:40:53.962Z,23.18
2019-02-23T05:43:23.560Z,22.87
2019-02-23T05:45:52.401Z,22.80
2019-02-23T05:48:21.366Z,22.10
2019-02-23T05:50:49.957Z,23.05
2019-02-23T05:53:18.645Z,21.75
2019-02-23T05:55:47.708Z,21.87
2019-02-23T05:58:16.781Z,21.48
2019-02-23T06:00:45.685Z,21.33
2019-02-23T06:03:14.619Z,27.67
2019-02-23T06:05:43.263Z,23.40
2019-02-23T06:08:12.407Z,21.50
2019-02-23T06:10:41.253Z,22.02
2019-02-23T06:13:10.226Z,22.22
2019-02-23T06:15:40.165Z,23.62
2019-02-23T06:18:08.833Z,22.75
2019-02-23T06:20:37.459Z,22.37
2019-02-23T06:23:06.175Z,22.52
2019-02-23T06:25:35.123Z,24.05
2019-02-23T06:28:03.885Z,25.68
2019-02-23T06:30:32.706Z,24.05
2019-02-23T06:33:01.781Z,27.73
2019-02-23T06:35:32.806Z,27.02
2019-02-23T06:38:01.906Z,28.42
2019-02-23T06:40:30.844Z,29.63
2019-02-23T06:42:59.471Z,33.18
2019-02-23T06:45:28.134Z,31.10
2019-02-23T06:47:56.927Z,28.17
2019-02-23T06:50:25.764Z,27.60
2019-02-23T06:52:55.665Z,26.48
2019-02-23T06:55:24.276Z,27.17
2019-02-23T06:57:52.988Z,26.20
2019-02-23T07:00:21.814Z,24.90
2019-02-23T07:02:50.538Z,27.05
2019-02-23T07:05:19.554Z,30.20
2019-02-23T07:07:48.542Z,26.77
2019-02-23T07:10:17.484Z,27.73
2019-02-23T07:12:46.079Z,29.18
2019-02-23T07:15:14.717Z,27.82
2019-02-23T07:17:43.366Z,29.67
2019-02-23T07:20:12.459Z,30.68
2019-02-23T07:22:41.068Z,32.93
2019-02-23T07:25:10.251Z,31.37
2019-02-23T07:27:39.041Z,33.23
2019-02-23T07:30:13.114Z,33.78
2019-02-23T07:32:41.885Z,33.83
2019-02-23T07:35:10.522Z,33.10
2019-02-23T07:37:39.384Z,34.90
2019-02-23T07:40:09.443Z,38.55
2019-02-23T07:42:38.200Z,35.00
2019-02-23T07:45:08.667Z,35.23
2019-02-23T07:47:37.389Z,34.15
2019-02-23T07:50:07.668Z,33.50
2019-02-23T07:52:36.387Z,32.67
2019-02-23T07:55:05.534Z,32.15
2019-02-23T07:57:34.138Z,32.13
2019-02-23T08:00:02.721Z,32.53
2019-02-23T08:02:32.792Z,32.75
2019-02-23T08:05:01.562Z,33.78
2019-02-23T08:07:31.578Z,33.13
2019-02-23T08:10:00.335Z,32.70
2019-02-23T08:12:29.114Z,32.55
2019-02-23T08:14:57.966Z,34.53
2019-02-23T08:17:26.565Z,28.65
2019-02-23T08:19:55.451Z,35.78
2019-02-23T08:22:24.453Z,27.70
2019-02-23T08:24:53.270Z,23.00
2019-02-23T08:27:22.445Z,24.40
2019-02-23T08:29:51.156Z,30.45
2019-02-23T08:32:19.915Z,17.30
2019-02-23T08:34:48.973Z,16.52
2019-02-23T08:37:18.098Z,17.55
2019-02-23T08:39:46.781Z,15.10
2019-02-23T08:42:15.414Z,14.00
2019-02-23T08:44:45.346Z,14.78
2019-02-23T08:47:14.110Z,12.88
2019-02-23T08:49:43.127Z,12.60
2019-02-23T08:52:12.496Z,11.97
2019-02-23T08:54:41.423Z,10.25
2019-02-23T08:57:11.377Z,10.20
2019-02-23T08:59:40.256Z,9.43
2019-02-23T09:02:08.980Z,12.33
2019-02-23T09:04:37.978Z,8.68
2019-02-23T09:07:06.870Z,11.35
2019-02-23T09:09:35.519Z,8.25
2019-02-23T09:12:04.126Z,9.25
2019-02-23T09:14:32.746Z,9.18
2019-02-23T09:17:01.492Z,9.35
2019-02-23T09:19:30.185Z,8.95
2019-02-23T09:21:58.795Z,9.10
2019-02-23T09:24:27.376Z,10.28
2019-02-23T09:26:56.247Z,9.38
2019-02-23T09:29:24.895Z,9.18
2019-02-23T09:31:53.505Z,8.60
2019-02-23T09:34:22.530Z,9.73
2019-02-23T09:36:51.328Z,10.15
2019-02-23T09:39:20.347Z,9.15
2019-02-23T09:41:49.316Z,7.97
2019-02-23T09:44:17.918Z,7.92
2019-02-23T09:46:46.765Z,8.20
2019-02-23T09:49:15.598Z,7.58
2019-02-23T09:51:44.317Z,7.03
2019-02-23T09:54:13.194Z,6.75
2019-02-23T09:56:42.088Z,7.62
2019-02-23T09:59:11.131Z,9.18
2019-02-23T10:01:39.884Z,6.95
2019-02-23T10:04:08.788Z,8.15
2019-02-23T10:06:37.497Z,8.28
2019-02-23T10:09:06.745Z,7.45
2019-02-23T10:11:35.837Z,8.83
2019-02-23T10:14:07.280Z,10.63
2019-02-23T10:16:35.126Z,7.50
2019-02-23T10:19:03.850Z,8.03
2019-02-23T10:21:33.558Z,8.75
2019-02-23T10:24:02.283Z,7.42
2019-02-23T10:26:32.181Z,7.05
2019-02-23T10:29:01.898Z,7.83
2019-02-23T10:31:30.666Z,8.08
2019-02-23T10:33:59.643Z,6.35
2019-02-23T10:36:28.196Z,7.47
2019-02-23T10:38:56.751Z,7.05
2019-02-23T10:41:25.425Z,7.62
2019-02-23T10:43:54.004Z,6.75
2019-02-23T10:46:22.622Z,7.90
2019-02-23T10:48:51.384Z,9.80
2019-02-23T10:51:20.014Z,9.03
2019-02-23T10:53:48.654Z,9.80
2019-02-23T10:56:17.309Z,8.00
2019-02-23T10:58:46.025Z,8.60
2019-02-23T11:01:14.746Z,8.13
2019-02-23T11:03:43.456Z,8.60
2019-02-23T11:06:18.869Z,10.15
2019-02-23T11:08:48.023Z,9.58
2019-02-23T11:11:16.769Z,10.45
2019-02-23T11:13:45.494Z,9.75
2019-02-23T11:16:14.386Z,9.30
2019-02-23T11:18:43.062Z,13.18
2019-02-23T11:21:12.151Z,10.90
2019-02-23T11:23:44.156Z,12.13
2019-02-23T11:26:11.287Z,11.22
2019-02-23T11:28:39.986Z,10.63
2019-02-23T11:31:08.785Z,12.10
2019-02-23T11:33:37.552Z,11.83
2019-02-23T11:36:06.290Z,10.53
2019-02-23T11:38:35.007Z,13.53
2019-02-23T11:41:03.677Z,10.50
2019-02-23T11:43:32.295Z,9.48
2019-02-23T11:46:01.044Z,9.88
2019-02-23T11:48:31.432Z,16.60
2019-02-23T11:51:01.119Z,13.35
2019-02-23T11:53:30.055Z,8.25
2019-02-23T11:55:58.778Z,8.78
2019-02-23T11:58:27.461Z,8.98
2019-02-23T12:00:56.127Z,8.43
2019-02-23T12:03:24.704Z,7.72
2019-02-23T12:05:53.662Z,8.00
2019-02-23T12:08:22.451Z,8.13
2019-02-23T12:10:50.982Z,8.38
2019-02-23T12:13:19.623Z,8.90
2019-02-23T12:15:48.286Z,8.43
2019-02-23T12:18:23.855Z,8.45
2019-02-23T12:20:55.847Z,8.58
2019-02-23T12:23:24.717Z,8.65
2019-02-23T12:25:53.493Z,9.75
2019-02-23T12:28:22.311Z,9.18
2019-02-23T12:30:51.113Z,9.23
2019-02-23T12:33:19.765Z,15.43
2019-02-23T12:35:48.484Z,10.78
2019-02-23T12:38:17.187Z,9.55
2019-02-23T12:40:46.501Z,10.93
2019-02-23T12:43:15.713Z,12.07
2019-02-23T12:45:44.689Z,8.45
2019-02-23T12:48:13.535Z,9.18
2019-02-23T12:50:42.416Z,9.30
2019-02-23T12:53:11.148Z,9.33
2019-02-23T12:55:39.919Z,8.50
2019-02-23T12:58:08.957Z,9.40
2019-02-23T13:00:37.547Z,8.58
2019-02-23T13:03:07.737Z,7.87
2019-02-23T13:08:57.140Z,8.45
2019-02-23T13:11:25.692Z,7.97
2019-02-23T13:13:55.817Z,8.95
2019-02-23T13:16:26.198Z,9.30
2019-02-23T13:19:05.248Z,8.58
2019-02-23T13:21:44.042Z,7.78
2019-02-23T13:24:29.207Z,8.13
2019-02-23T13:27:02.509Z,10.32
2019-02-23T13:29:35.427Z,10.68
2019-02-23T13:32:17.487Z,9.53
2019-02-23T13:34:51.041Z,10.60
2019-02-23T13:37:23.696Z,9.93
2019-02-23T13:39:56.426Z,10.15
2019-02-23T13:42:44.930Z,11.15
2019-02-23T13:45:21.287Z,9.58
2019-02-23T13:48:03.386Z,11.00
2019-02-23T13:50:33.518Z,11.75
2019-02-23T13:53:06.599Z,9.25
2019-02-23T13:55:36.788Z,10.93
2019-02-23T13:58:12.599Z,10.82
2019-02-23T14:00:59.090Z,16.77
2019-02-23T14:03:32.174Z,9.33
2019-02-23T14:06:14.360Z,7.90
2019-02-23T14:08:56.494Z,13.38
2019-02-23T14:11:44.766Z,9.10
2019-02-23T14:14:17.675Z,18.45
2019-02-23T14:17:02.795Z,8.35
2019-02-23T14:19:49.537Z,65.10
2019-02-23T14:22:27.583Z,44.13
2019-02-23T14:24:57.774Z,13.60
2019-02-23T14:27:28.063Z,10.72
2019-02-23T14:30:14.570Z,12.70
2019-02-23T14:32:46.993Z,6.83
2019-02-23T14:35:22.239Z,12.47
2019-02-23T14:38:10.978Z,9.53
2019-02-23T14:40:58.728Z,6.95
2019-02-23T14:43:36.333Z,7.53
2019-02-23T14:46:24.420Z,35.33
2019-02-23T14:48:54.517Z,8.25
2019-02-23T14:51:33.841Z,7.33
2019-02-23T14:54:20.379Z,13.10
2019-02-23T14:56:51.494Z,8.75
2019-02-23T14:59:39.859Z,9.35
2019-02-23T15:02:13.148Z,55.55
2019-02-23T15:04:43.173Z,10.98
2019-02-23T15:07:13.277Z,10.55
2019-02-23T15:09:58.708Z,13.70
2019-02-23T15:12:37.993Z,10.55
2019-02-23T15:15:08.098Z,24.32
2019-02-23T15:17:38.177Z,11.18
2019-02-23T15:20:11.331Z,11.30
2019-02-23T15:22:48.629Z,9.70
2019-02-23T15:25:24.924Z,9.25
2019-02-23T15:28:00.970Z,10.00
2019-02-23T15:30:31.173Z,13.78
2019-02-23T15:33:08.713Z,8.50
2019-02-23T15:36:16.765Z,11.93
2019-02-23T15:39:04.105Z,8.60
2019-02-23T15:41:35.908Z,13.95
2019-02-23T15:44:14.572Z,11.85
2019-02-23T15:46:48.849Z,11.97
2019-02-23T15:49:30.271Z,11.40
2019-02-23T15:51:59.835Z,12.90
2019-02-23T15:54:29.325Z,10.98
2019-02-23T15:56:58.179Z,12.43
2019-02-23T15:59:26.831Z,10.63
2019-02-23T16:01:55.470Z,12.07
2019-02-23T16:04:24.167Z,13.90
2019-02-23T16:06:53.162Z,16.23
2019-02-23T16:09:22.058Z,14.80
2019-02-23T16:11:50.734Z,14.40
2019-02-23T16:14:19.437Z,12.03
2019-02-23T16:16:48.015Z,12.37
2019-02-23T16:19:16.605Z,12.80
2019-02-23T16:21:45.253Z,12.18
2019-02-23T16:24:14.385Z,13.20
2019-02-23T16:26:43.832Z,11.78
2019-02-23T16:29:17.907Z,10.75
2019-02-23T16:31:46.826Z,10.58
2019-02-23T16:34:15.656Z,12.28
2019-02-23T16:36:44.819Z,11.83
2019-02-23T16:39:13.437Z,12.70
2019-02-23T16:41:42.201Z,11.08
2019-02-23T16:44:12.076Z,11.90
2019-02-23T16:46:40.693Z,11.00
2019-02-23T16:49:09.488Z,11.83
2019-02-23T16:51:38.239Z,11.48
2019-02-23T16:54:07.002Z,10.78
2019-02-23T16:56:35.705Z,11.88
2019-02-23T16:59:04.449Z,13.20
2019-02-23T17:01:33.335Z,13.08
2019-02-23T17:04:02.047Z,12.90
2019-02-23T17:06:32.879Z,10.95
2019-02-23T17:09:01.253Z,15.50
2019-02-23T17:11:32.248Z,17.25
2019-02-23T17:14:00.988Z,19.85
2019-02-23T17:16:29.592Z,21.77
2019-02-23T17:18:58.290Z,31.20
2019-02-23T17:21:26.905Z,36.55
2019-02-23T17:23:55.540Z,38.85
2019-02-23T17:26:25.221Z,28.45
2019-02-23T17:28:53.862Z,23.50
2019-02-23T17:31:22.473Z,24.32
2019-02-23T17:33:51.177Z,24.02
2019-02-23T17:36:19.853Z,19.07
2019-02-23T17:38:48.643Z,18.25
2019-02-23T17:41:17.257Z,18.50
2019-02-23T17:43:45.874Z,19.27
2019-02-23T17:46:14.482Z,18.12
2019-02-23T17:48:43.572Z,15.63
2019-02-23T17:51:12.368Z,15.18
2019-02-23T17:53:41.152Z,17.62
2019-02-23T17:56:12.340Z,18.62
2019-02-23T17:58:40.114Z,16.27
2019-02-23T18:01:08.766Z,17.87
2019-02-23T18:03:38.115Z,15.08
2019-02-23T18:06:06.844Z,14.30
2019-02-23T18:08:35.461Z,13.30
2019-02-23T18:11:04.066Z,14.18
2019-02-23T18:13:33.354Z,34.00
2019-02-23T18:16:01.994Z,43.52
2019-02-23T18:18:32.015Z,39.50
2019-02-23T18:21:00.615Z,19.27
2019-02-23T18:23:29.391Z,18.15
2019-02-23T18:25:59.725Z,19.42
2019-02-23T18:28:28.657Z,19.20
2019-02-23T18:30:57.495Z,18.42
2019-02-23T18:33:26.253Z,20.00
2019-02-23T18:35:55.268Z,20.20
2019-02-23T18:38:25.038Z,19.50
2019-02-23T18:40:54.206Z,24.65
2019-02-23T18:43:23.695Z,23.42
2019-02-23T18:45:53.865Z,20.75
2019-02-23T18:48:23.695Z,20.17
2019-02-23T18:50:53.488Z,25.10
2019-02-23T18:53:22.111Z,30.68
2019-02-23T18:55:50.787Z,21.17
2019-02-23T18:58:19.537Z,18.77
2019-02-23T19:00:48.516Z,20.05
2019-02-23T19:03:17.346Z,41.23
2019-02-23T19:05:49.974Z,28.50
2019-02-23T19:08:16.617Z,31.90
2019-02-23T19:10:45.372Z,24.05
2019-02-23T19:13:14.095Z,20.80
2019-02-23T19:15:42.656Z,21.87
2019-02-23T19:18:11.857Z,22.77
2019-02-23T19:20:40.705Z,40.95
2019-02-23T19:23:09.627Z,26.68
2019-02-23T19:25:38.348Z,27.42
2019-02-23T19:28:07.178Z,39.50
2019-02-23T19:30:36.342Z,94.50
2019-02-23T19:33:05.018Z,174.42
2019-02-23T19:35:33.761Z,64.60
2019-02-23T19:38:02.615Z,83.30
2019-02-23T19:40:31.316Z,32.30
2019-02-23T19:42:59.934Z,30.35
2019-02-23T19:45:28.564Z,26.10
2019-02-23T19:47:57.275Z,24.90
2019-02-23T19:50:27.739Z,26.68
2019-02-23T19:52:56.525Z,25.15
2019-02-23T19:55:25.192Z,28.10
2019-02-23T19:57:53.865Z,25.77
2019-02-23T20:00:22.426Z,25.35
2019-02-23T20:02:51.226Z,23.85
2019-02-23T20:05:20.021Z,23.18
2019-02-23T20:07:49.138Z,23.87
2019-02-23T20:10:17.739Z,21.82
2019-02-23T20:12:46.430Z,24.30
2019-02-23T20:15:15.178Z,29.72
2019-02-23T20:17:44.105Z,40.48
2019-02-23T20:20:12.709Z,44.85
2019-02-23T20:22:44.364Z,47.15
2019-02-23T20:25:13.072Z,31.57
2019-02-23T20:27:41.707Z,42.78
2019-02-23T20:30:11.310Z,40.45
2019-02-23T20:32:40.143Z,33.53
2019-02-23T20:35:09.010Z,30.88
2019-02-23T20:37:37.621Z,28.87
2019-02-23T20:40:07.685Z,33.98
2019-02-23T20:42:36.310Z,38.42
2019-02-23T20:45:06.225Z,32.90
2019-02-23T20:47:35.687Z,25.35
2019-02-23T20:50:08.652Z,24.52
2019-02-23T20:52:37.527Z,24.77
2019-02-23T20:55:07.784Z,22.95
2019-02-23T20:57:37.045Z,23.92
2019-02-23T21:00:08.196Z,35.08
2019-02-23T21:02:39.105Z,37.50
2019-02-23T21:05:09.397Z,35.55
2019-02-23T21:07:39.363Z,33.58
2019-02-23T21:10:09.115Z,35.95
2019-02-23T21:12:37.902Z,33.75
2019-02-23T21:15:07.919Z,33.48
2019-02-23T21:17:37.475Z,29.12
2019-02-23T21:20:07.596Z,32.70
2019-02-23T21:22:36.585Z,48.10
2019-02-23T21:25:06.505Z,52.58
2019-02-23T21:27:35.164Z,41.23
2019-02-23T21:30:04.229Z,31.55
2019-02-23T21:32:33.195Z,27.30
2019-02-23T21:35:02.918Z,27.93
2019-02-23T21:37:31.564Z,28.20
2019-02-23T21:40:00.292Z,28.67
2019-02-23T21:42:29.020Z,28.23
2019-02-23T21:44:58.023Z,30.72
2019-02-23T21:47:28.036Z,31.65
2019-02-23T21:49:56.732Z,29.47
2019-02-23T21:52:25.496Z,26.82
2019-02-23T21:54:55.544Z,27.50
2019-02-23T21:57:24.266Z,27.30
2019-02-23T21:59:53.244Z,33.13
2019-02-23T22:02:22.214Z,33.85
2019-02-23T22:04:51.098Z,37.70
2019-02-23T22:07:19.672Z,36.95
2019-02-23T22:09:48.400Z,35.33
2019-02-23T22:12:17.274Z,30.50
2019-02-23T22:14:45.899Z,33.92
2019-02-23T22:17:14.717Z,29.32
2019-02-23T22:19:43.685Z,28.73
2019-02-23T22:22:12.353Z,29.55
2019-02-23T22:24:40.982Z,33.78
2019-02-23T22:27:09.662Z,28.62
2019-02-23T22:29:38.289Z,26.68
2019-02-23T22:32:07.017Z,28.32
2019-02-23T22:34:35.541Z,28.07
2019-02-23T22:37:04.248Z,28.07
2019-02-23T22:39:32.953Z,25.90
2019-02-23T22:42:01.658Z,23.02
2019-02-23T22:44:30.483Z,25.88
2019-02-23T22:46:59.534Z,23.70
2019-02-23T22:49:28.287Z,27.22
2019-02-23T22:51:56.997Z,26.15
2019-02-23T22:54:25.871Z,25.32
2019-02-23T22:56:54.724Z,37.28
2019-02-23T22:59:23.545Z,27.87
2019-02-23T23:01:52.314Z,22.60
2019-02-23T23:04:21.361Z,23.67
2019-02-23T23:06:50.199Z,23.30
2019-02-23T23:09:20.199Z,26.20
2019-02-23T23:11:49.227Z,24.45
2019-02-23T23:14:17.787Z,22.13
2019-02-23T23:16:46.764Z,29.42
2019-02-23T23:19:15.444Z,26.48
2019-02-23T23:21:44.689Z,40.28
2019-02-23T23:24:13.556Z,29.82
2019-02-23T23:26:42.471Z,23.75
2019-02-23T23:29:11.479Z,21.62
2019-02-23T23:31:40.310Z,25.72
2019-02-23T23:34:08.873Z,32.13
2019-02-23T23:36:37.897Z,26.15
2019-02-23T23:39:06.528Z,19.57
2019-02-23T23:41:36.608Z,22.42
2019-02-23T23:44:05.331Z,22.30
2019-02-23T23:46:35.396Z,23.32
2019-02-23T23:49:04.348Z,22.17
2019-02-23T23:51:33.427Z,21.90
2019-02-23T23:54:02.028Z,22.20
2019-02-23T23:56:30.830Z,20.82
2019-02-23T23:58:59.596Z,20.50
